sensor_id;sensor_type;location;lat;lon;timestamp;pressure;altitude;pressure_sealevel;temperature;humidity
2178;BME280;1095;50.992;6.798;2022-12-18T00:00:04;102182.38;;;-6.20;99.05
2178;BME280;1095;50.992;6.798;2022-12-18T00:02:34;102172.16;;;-6.15;99.04
2178;BME280;1095;50.992;6.798;2022-12-18T00:05:01;102172.16;;;-6.18;99.23
2178;BME280;1095;50.992;6.798;2022-12-18T00:07:27;102171.34;;;-6.22;98.79
2178;BME280;1095;50.992;6.798;2022-12-18T00:09:54;102171.38;;;-6.25;99.24
2178;BME280;1095;50.992;6.798;2022-12-18T00:12:22;102171.44;;;-6.34;98.86
2178;BME280;1095;50.992;6.798;2022-12-18T00:14:49;102179.03;;;-6.29;99.28
2178;BME280;1095;50.992;6.798;2022-12-18T00:17:15;102185.88;;;-6.34;99.31
2178;BME280;1095;50.992;6.798;2022-12-18T00:19:42;102185.00;;;-6.33;99.33
2178;BME280;1095;50.992;6.798;2022-12-18T00:22:09;102181.59;;;-6.31;99.41
2178;BME280;1095;50.992;6.798;2022-12-18T00:24:35;102179.06;;;-6.36;99.21
2178;BME280;1095;50.992;6.798;2022-12-18T00:27:02;102179.97;;;-6.41;99.27
2178;BME280;1095;50.992;6.798;2022-12-18T00:29:30;102180.78;;;-6.38;99.43
2178;BME280;1095;50.992;6.798;2022-12-18T00:31:57;102183.28;;;-6.30;99.58
2178;BME280;1095;50.992;6.798;2022-12-18T00:34:23;102194.38;;;-6.36;99.19
2178;BME280;1095;50.992;6.798;2022-12-18T00:36:50;102197.75;;;-6.37;99.57
2178;BME280;1095;50.992;6.798;2022-12-18T00:39:16;102184.22;;;-6.45;99.32
2178;BME280;1095;50.992;6.798;2022-12-18T00:41:43;102188.44;;;-6.39;99.53
2178;BME280;1095;50.992;6.798;2022-12-18T00:44:27;102185.09;;;-6.46;99.55
2178;BME280;1095;50.992;6.798;2022-12-18T00:46:55;102177.53;;;-6.58;99.38
2178;BME280;1095;50.992;6.798;2022-12-18T00:49:22;102176.69;;;-6.60;99.37
2178;BME280;1095;50.992;6.798;2022-12-18T00:51:48;102166.50;;;-6.60;100.00
2178;BME280;1095;50.992;6.798;2022-12-18T00:54:15;102169.03;;;-6.57;99.57
2178;BME280;1095;50.992;6.798;2022-12-18T00:56:42;102170.75;;;-6.59;99.50
2178;BME280;1095;50.992;6.798;2022-12-18T00:59:09;102174.13;;;-6.60;99.30
2178;BME280;1095;50.992;6.798;2022-12-18T01:01:36;102162.31;;;-6.62;99.68
2178;BME280;1095;50.992;6.798;2022-12-18T01:04:04;102166.59;;;-6.71;99.49
2178;BME280;1095;50.992;6.798;2022-12-18T01:06:31;102169.16;;;-6.72;99.66
2178;BME280;1095;50.992;6.798;2022-12-18T01:08:57;102162.38;;;-6.75;99.75
2178;BME280;1095;50.992;6.798;2022-12-18T01:11:24;102170.00;;;-6.76;99.96
2178;BME280;1095;50.992;6.798;2022-12-18T01:13:51;102159.00;;;-6.77;99.78
2178;BME280;1095;50.992;6.798;2022-12-18T01:16:19;102164.03;;;-6.66;100.00
2178;BME280;1095;50.992;6.798;2022-12-18T01:18:45;102157.25;;;-6.70;100.00
2178;BME280;1095;50.992;6.798;2022-12-18T01:21:15;102164.06;;;-6.74;100.00
2178;BME280;1095;50.992;6.798;2022-12-18T01:23:42;102161.53;;;-6.74;100.00
2178;BME280;1095;50.992;6.798;2022-12-18T01:26:15;102160.66;;;-6.71;99.66
2178;BME280;1095;50.992;6.798;2022-12-18T01:28:42;102158.88;;;-6.60;100.00
2178;BME280;1095;50.992;6.798;2022-12-18T01:31:15;102170.69;;;-6.53;99.89
2178;BME280;1095;50.992;6.798;2022-12-18T01:33:42;102153.72;;;-6.54;99.79
2178;BME280;1095;50.992;6.798;2022-12-18T01:36:16;102161.34;;;-6.48;99.44
2178;BME280;1095;50.992;6.798;2022-12-18T01:38:44;102163.06;;;-6.53;99.64
2178;BME280;1095;50.992;6.798;2022-12-18T01:41:11;102163.94;;;-6.58;99.88
2178;BME280;1095;50.992;6.798;2022-12-18T01:43:49;102166.56;;;-6.67;99.82
2178;BME280;1095;50.992;6.798;2022-12-18T01:46:17;102166.59;;;-6.71;100.00
2178;BME280;1095;50.992;6.798;2022-12-18T01:48:44;102165.75;;;-6.71;100.00
2178;BME280;1095;50.992;6.798;2022-12-18T01:51:13;102160.69;;;-6.79;100.00
2178;BME280;1095;50.992;6.798;2022-12-18T01:53:42;102162.31;;;-6.64;99.70
2178;BME280;1095;50.992;6.798;2022-12-18T01:56:13;102166.56;;;-6.64;99.81
2178;BME280;1095;50.992;6.798;2022-12-18T01:58:46;102169.13;;;-6.67;99.92
2178;BME280;1095;50.992;6.798;2022-12-18T02:01:15;102173.34;;;-6.65;99.91
2178;BME280;1095;50.992;6.798;2022-12-18T02:03:43;102162.38;;;-6.73;99.49
2178;BME280;1095;50.992;6.798;2022-12-18T02:06:14;102162.41;;;-6.82;100.00
2178;BME280;1095;50.992;6.798;2022-12-18T02:08:49;102145.44;;;-6.83;99.85
2178;BME280;1095;50.992;6.798;2022-12-18T02:11:30;102153.13;;;-6.89;99.96
2178;BME280;1095;50.992;6.798;2022-12-18T02:14:05;102148.88;;;-6.90;100.00
2178;BME280;1095;50.992;6.798;2022-12-18T02:16:39;102157.34;;;-6.85;100.00
2178;BME280;1095;50.992;6.798;2022-12-18T02:19:19;102145.44;;;-6.83;100.00
2178;BME280;1095;50.992;6.798;2022-12-18T02:21:52;102151.34;;;-6.78;100.00
2178;BME280;1095;50.992;6.798;2022-12-18T02:24:30;102157.34;;;-6.87;100.00
2178;BME280;1095;50.992;6.798;2022-12-18T02:27:04;102164.13;;;-6.84;100.00
2178;BME280;1095;50.992;6.798;2022-12-18T02:29:36;102165.81;;;-6.83;100.00
2178;BME280;1095;50.992;6.798;2022-12-18T02:32:06;102161.56;;;-6.81;100.00
2178;BME280;1095;50.992;6.798;2022-12-18T02:34:38;102148.88;;;-6.87;100.00
2178;BME280;1095;50.992;6.798;2022-12-18T02:37:07;102148.84;;;-6.84;100.00
2178;BME280;1095;50.992;6.798;2022-12-18T02:39:38;102153.94;;;-6.87;100.00
2178;BME280;1095;50.992;6.798;2022-12-18T02:42:07;102162.38;;;-6.78;100.00
2178;BME280;1095;50.992;6.798;2022-12-18T02:44:34;102155.63;;;-6.80;100.00
2178;BME280;1095;50.992;6.798;2022-12-18T02:47:01;102157.31;;;-6.79;100.00
2178;BME280;1095;50.992;6.798;2022-12-18T02:49:35;102141.16;;;-6.77;100.00
2178;BME280;1095;50.992;6.798;2022-12-18T02:52:09;102143.69;;;-6.72;100.00
2178;BME280;1095;50.992;6.798;2022-12-18T02:55:00;102134.34;;;-6.72;99.94
2178;BME280;1095;50.992;6.798;2022-12-18T02:57:40;102137.78;;;-6.76;99.96
2178;BME280;1095;50.992;6.798;2022-12-18T03:00:11;102141.22;;;-6.86;100.00
2178;BME280;1095;50.992;6.798;2022-12-18T03:02:42;102142.09;;;-6.94;99.82
2178;BME280;1095;50.992;6.798;2022-12-18T03:05:15;102136.16;;;-6.92;99.86
2178;BME280;1095;50.992;6.798;2022-12-18T03:07:46;102139.56;;;-6.94;100.00
2178;BME280;1095;50.992;6.798;2022-12-18T03:10:19;102143.78;;;-6.90;100.00
2178;BME280;1095;50.992;6.798;2022-12-18T03:12:50;102142.91;;;-6.83;100.00
2178;BME280;1095;50.992;6.798;2022-12-18T03:15:20;102138.66;;;-6.84;100.00
2178;BME280;1095;50.992;6.798;2022-12-18T03:17:55;102130.19;;;-6.86;100.00
2178;BME280;1095;50.992;6.798;2022-12-18T03:20:25;102119.97;;;-6.77;99.93
2178;BME280;1095;50.992;6.798;2022-12-18T03:22:57;102127.56;;;-6.70;99.96
2178;BME280;1095;50.992;6.798;2022-12-18T03:25:26;102126.56;;;-6.55;99.73
2178;BME280;1095;50.992;6.798;2022-12-18T03:27:56;102124.03;;;-6.55;99.82
2178;BME280;1095;50.992;6.798;2022-12-18T03:30:26;102118.94;;;-6.56;99.44
2178;BME280;1095;50.992;6.798;2022-12-18T03:33:00;102117.25;;;-6.56;99.15
2178;BME280;1095;50.992;6.798;2022-12-18T03:35:31;102123.19;;;-6.54;99.42
2178;BME280;1095;50.992;6.798;2022-12-18T03:38:00;102131.66;;;-6.52;98.92
2178;BME280;1095;50.992;6.798;2022-12-18T03:40:29;102134.16;;;-6.47;98.87
2178;BME280;1095;50.992;6.798;2022-12-18T03:43:05;102128.22;;;-6.45;98.57
2178;BME280;1095;50.992;6.798;2022-12-18T03:45:37;102135.00;;;-6.44;98.37
2178;BME280;1095;50.992;6.798;2022-12-18T03:48:08;102136.66;;;-6.40;98.47
2178;BME280;1095;50.992;6.798;2022-12-18T03:50:41;102115.47;;;-6.45;98.45
2178;BME280;1095;50.992;6.798;2022-12-18T03:53:22;102118.03;;;-6.48;98.19
2178;BME280;1095;50.992;6.798;2022-12-18T03:55:51;102125.66;;;-6.46;98.02
2178;BME280;1095;50.992;6.798;2022-12-18T03:58:23;102129.94;;;-6.50;97.96
2178;BME280;1095;50.992;6.798;2022-12-18T04:00:52;102129.09;;;-6.50;98.42
2178;BME280;1095;50.992;6.798;2022-12-18T04:03:22;102127.38;;;-6.50;98.13
2178;BME280;1095;50.992;6.798;2022-12-18T04:05:51;102119.75;;;-6.50;98.11
2178;BME280;1095;50.992;6.798;2022-12-18T04:08:19;102109.63;;;-6.59;97.94
2178;BME280;1095;50.992;6.798;2022-12-18T04:10:47;102111.34;;;-6.61;98.03
2178;BME280;1095;50.992;6.798;2022-12-18T04:13:23;102091.03;;;-6.67;98.10
2178;BME280;1095;50.992;6.798;2022-12-18T04:15:49;102106.25;;;-6.61;98.43
2178;BME280;1095;50.992;6.798;2022-12-18T04:18:16;102098.66;;;-6.62;98.20
2178;BME280;1095;50.992;6.798;2022-12-18T04:20:43;102108.78;;;-6.59;98.56
2178;BME280;1095;50.992;6.798;2022-12-18T04:23:09;102102.81;;;-6.57;98.38
2178;BME280;1095;50.992;6.798;2022-12-18T04:25:36;102108.78;;;-6.58;98.47
2178;BME280;1095;50.992;6.798;2022-12-18T04:28:02;102106.22;;;-6.55;98.23
2178;BME280;1095;50.992;6.798;2022-12-18T04:30:30;102104.53;;;-6.59;98.41
2178;BME280;1095;50.992;6.798;2022-12-18T04:32:57;102099.44;;;-6.59;98.19
2178;BME280;1095;50.992;6.798;2022-12-18T04:35:24;102102.00;;;-6.60;98.20
2178;BME280;1095;50.992;6.798;2022-12-18T04:37:50;102100.34;;;-6.63;98.41
2178;BME280;1095;50.992;6.798;2022-12-18T04:40:17;102104.59;;;-6.62;98.26
2178;BME280;1095;50.992;6.798;2022-12-18T04:42:43;102094.44;;;-6.66;98.33
2178;BME280;1095;50.992;6.798;2022-12-18T04:45:10;102097.84;;;-6.69;98.29
2178;BME280;1095;50.992;6.798;2022-12-18T04:47:38;102092.75;;;-6.66;98.45
2178;BME280;1095;50.992;6.798;2022-12-18T04:50:05;102090.22;;;-6.72;98.12
2178;BME280;1095;50.992;6.798;2022-12-18T04:52:32;102090.19;;;-6.67;98.52
2178;BME280;1095;50.992;6.798;2022-12-18T04:54:59;102084.25;;;-6.65;98.70
2178;BME280;1095;50.992;6.798;2022-12-18T04:57:25;102087.66;;;-6.69;98.12
2178;BME280;1095;50.992;6.798;2022-12-18T04:59:52;102070.72;;;-6.73;98.04
2178;BME280;1095;50.992;6.798;2022-12-18T05:02:19;102081.75;;;-6.71;97.89
2178;BME280;1095;50.992;6.798;2022-12-18T05:04:47;102081.75;;;-6.73;98.15
2178;BME280;1095;50.992;6.798;2022-12-18T05:07:14;102080.09;;;-6.77;98.38
2178;BME280;1095;50.992;6.798;2022-12-18T05:09:40;102082.56;;;-6.66;98.30
2178;BME280;1095;50.992;6.798;2022-12-18T05:12:07;102074.97;;;-6.75;98.36
2178;BME280;1095;50.992;6.798;2022-12-18T05:14:33;102067.31;;;-6.71;98.38
2178;BME280;1095;50.992;6.798;2022-12-18T05:17:00;102075.69;;;-6.58;98.63
2178;BME280;1095;50.992;6.798;2022-12-18T05:19:27;102083.25;;;-6.49;97.85
2178;BME280;1095;50.992;6.798;2022-12-18T05:21:55;102080.75;;;-6.55;98.14
2178;BME280;1095;50.992;6.798;2022-12-18T05:24:21;102085.84;;;-6.58;97.96
2178;BME280;1095;50.992;6.798;2022-12-18T05:26:48;102084.97;;;-6.51;98.13
2178;BME280;1095;50.992;6.798;2022-12-18T05:29:14;102085.84;;;-6.56;98.09
2178;BME280;1095;50.992;6.798;2022-12-18T05:31:41;102090.88;;;-6.49;98.21
2178;BME280;1095;50.992;6.798;2022-12-18T05:34:08;102091.75;;;-6.50;97.84
2178;BME280;1095;50.992;6.798;2022-12-18T05:36:34;102101.06;;;-6.49;97.96
2178;BME280;1095;50.992;6.798;2022-12-18T05:39:03;102108.63;;;-6.38;98.17
2178;BME280;1095;50.992;6.798;2022-12-18T05:41:29;102105.25;;;-6.42;98.00
2178;BME280;1095;50.992;6.798;2022-12-18T05:43:56;102113.69;;;-6.33;97.64
2178;BME280;1095;50.992;6.798;2022-12-18T05:46:22;102107.84;;;-6.48;97.70
2178;BME280;1095;50.992;6.798;2022-12-18T05:48:49;102111.25;;;-6.49;97.63
2178;BME280;1095;50.992;6.798;2022-12-18T05:51:19;102107.91;;;-6.54;97.76
2178;BME280;1095;50.992;6.798;2022-12-18T05:53:46;102119.88;;;-6.62;97.89
2178;BME280;1095;50.992;6.798;2022-12-18T05:56:16;102113.09;;;-6.63;98.18
2178;BME280;1095;50.992;6.798;2022-12-18T05:58:43;102129.22;;;-6.65;98.14
2178;BME280;1095;50.992;6.798;2022-12-18T06:01:12;102127.50;;;-6.62;98.24
2178;BME280;1095;50.992;6.798;2022-12-18T06:03:39;102138.47;;;-6.57;97.99
2178;BME280;1095;50.992;6.798;2022-12-18T06:06:13;102141.03;;;-6.58;97.96
2178;BME280;1095;50.992;6.798;2022-12-18T06:08:40;102138.47;;;-6.55;98.27
2178;BME280;1095;50.992;6.798;2022-12-18T06:11:06;102145.19;;;-6.47;97.80
2178;BME280;1095;50.992;6.798;2022-12-18T06:13:34;102148.56;;;-6.45;97.93
2178;BME280;1095;50.992;6.798;2022-12-18T06:16:02;102137.59;;;-6.53;98.52
2178;BME280;1095;50.992;6.798;2022-12-18T06:18:29;102145.25;;;-6.53;97.87
2178;BME280;1095;50.992;6.798;2022-12-18T06:20:55;102135.81;;;-6.40;98.00
2178;BME280;1095;50.992;6.798;2022-12-18T06:23:22;102146.00;;;-6.40;97.99
2178;BME280;1095;50.992;6.798;2022-12-18T06:25:49;102144.34;;;-6.44;98.01
2178;BME280;1095;50.992;6.798;2022-12-18T06:28:16;102147.75;;;-6.47;97.83
2178;BME280;1095;50.992;6.798;2022-12-18T06:30:45;102147.66;;;-6.36;98.08
2178;BME280;1095;50.992;6.798;2022-12-18T06:33:12;102146.81;;;-6.33;98.31
2178;BME280;1095;50.992;6.798;2022-12-18T06:35:38;102142.53;;;-6.31;97.79
2178;BME280;1095;50.992;6.798;2022-12-18T06:38:05;102134.88;;;-6.28;97.96
2178;BME280;1095;50.992;6.798;2022-12-18T06:40:32;102144.22;;;-6.30;97.85
2178;BME280;1095;50.992;6.798;2022-12-18T06:42:59;102133.25;;;-6.39;97.85
2178;BME280;1095;50.992;6.798;2022-12-18T06:45:26;102128.13;;;-6.36;97.99
2178;BME280;1095;50.992;6.798;2022-12-18T06:47:54;102122.22;;;-6.39;97.92
2178;BME280;1095;50.992;6.798;2022-12-18T06:50:20;102116.31;;;-6.43;98.08
2178;BME280;1095;50.992;6.798;2022-12-18T06:52:47;102117.19;;;-6.48;98.10
2178;BME280;1095;50.992;6.798;2022-12-18T06:55:13;102116.28;;;-6.40;97.86
2178;BME280;1095;50.992;6.798;2022-12-18T06:57:40;102118.00;;;-6.42;98.36
2178;BME280;1095;50.992;6.798;2022-12-18T07:00:07;102119.63;;;-6.34;98.27
2178;BME280;1095;50.992;6.798;2022-12-18T07:02:34;102109.44;;;-6.31;98.06
2178;BME280;1095;50.992;6.798;2022-12-18T07:05:02;102111.94;;;-6.25;98.12
2178;BME280;1095;50.992;6.798;2022-12-18T07:07:29;102112.00;;;-6.33;97.98
2178;BME280;1095;50.992;6.798;2022-12-18T07:09:56;102112.81;;;-6.29;97.70
2178;BME280;1095;50.992;6.798;2022-12-18T07:12:22;102109.44;;;-6.34;97.75
2178;BME280;1095;50.992;6.798;2022-12-18T07:14:49;102112.00;;;-6.33;97.89
2178;BME280;1095;50.992;6.798;2022-12-18T07:17:15;102108.53;;;-6.27;97.57
2178;BME280;1095;50.992;6.798;2022-12-18T07:19:42;102105.25;;;-6.39;97.91
2178;BME280;1095;50.992;6.798;2022-12-18T07:22:10;102117.13;;;-6.41;97.92
2178;BME280;1095;50.992;6.798;2022-12-18T07:24:37;102116.19;;;-6.27;97.91
2178;BME280;1095;50.992;6.798;2022-12-18T07:27:03;102119.56;;;-6.25;98.05
2178;BME280;1095;50.992;6.798;2022-12-18T07:29:30;102106.00;;;-6.27;97.90
2178;BME280;1095;50.992;6.798;2022-12-18T07:31:57;102100.03;;;-6.25;97.60
2178;BME280;1095;50.992;6.798;2022-12-18T07:34:23;102098.34;;;-6.27;97.83
2178;BME280;1095;50.992;6.798;2022-12-18T07:36:50;102095.03;;;-6.36;97.87
2178;BME280;1095;50.992;6.798;2022-12-18T07:39:18;102103.50;;;-6.33;97.85
2178;BME280;1095;50.992;6.798;2022-12-18T07:41:44;102119.56;;;-6.25;97.78
2178;BME280;1095;50.992;6.798;2022-12-18T07:44:32;102113.63;;;-6.27;98.00
2178;BME280;1095;50.992;6.798;2022-12-18T07:46:58;102117.81;;;-6.20;97.77
2178;BME280;1095;50.992;6.798;2022-12-18T07:49:25;102113.56;;;-6.17;97.81
2178;BME280;1095;50.992;6.798;2022-12-18T07:51:53;102105.81;;;-6.09;97.49
2178;BME280;1095;50.992;6.798;2022-12-18T07:54:22;102104.88;;;-6.00;97.44
2178;BME280;1095;50.992;6.798;2022-12-18T07:56:49;102100.44;;;-5.85;97.59
2178;BME280;1095;50.992;6.798;2022-12-18T07:59:16;102086.81;;;-5.81;96.76
2178;BME280;1095;50.992;6.798;2022-12-18T08:01:43;102085.88;;;-5.72;96.60
2178;BME280;1095;50.992;6.798;2022-12-18T08:04:10;102084.91;;;-5.63;96.48
2178;BME280;1095;50.992;6.798;2022-12-18T08:06:36;102082.31;;;-5.60;96.38
2178;BME280;1095;50.992;6.798;2022-12-18T08:09:03;102082.22;;;-5.51;96.07
2178;BME280;1095;50.992;6.798;2022-12-18T08:11:32;102072.09;;;-5.59;95.84
2178;BME280;1095;50.992;6.798;2022-12-18T08:13:58;102054.44;;;-5.73;96.13
2178;BME280;1095;50.992;6.798;2022-12-18T08:16:25;102050.16;;;-5.71;96.03
2178;BME280;1095;50.992;6.798;2022-12-18T08:18:52;102061.06;;;-5.59;96.10
2178;BME280;1095;50.992;6.798;2022-12-18T08:21:21;102053.31;;;-5.53;96.11
2178;BME280;1095;50.992;6.798;2022-12-18T08:23:49;102038.88;;;-5.54;96.00
2178;BME280;1095;50.992;6.798;2022-12-18T08:26:15;102039.56;;;-5.42;95.79
2178;BME280;1095;50.992;6.798;2022-12-18T08:28:43;102035.41;;;-5.49;95.68
2178;BME280;1095;50.992;6.798;2022-12-18T08:31:10;102037.00;;;-5.39;95.57
2178;BME280;1095;50.992;6.798;2022-12-18T08:33:38;102049.53;;;-5.23;95.58
2178;BME280;1095;50.992;6.798;2022-12-18T08:36:06;102038.50;;;-5.24;95.27
2178;BME280;1095;50.992;6.798;2022-12-18T08:38:36;102047.63;;;-5.11;95.01
2178;BME280;1095;50.992;6.798;2022-12-18T08:41:05;102033.19;;;-5.12;94.98
2178;BME280;1095;50.992;6.798;2022-12-18T08:43:32;102027.25;;;-5.12;94.76
2178;BME280;1095;50.992;6.798;2022-12-18T08:46:18;102033.94;;;-5.05;94.54
2178;BME280;1095;50.992;6.798;2022-12-18T08:48:46;102035.63;;;-5.03;94.67
2178;BME280;1095;50.992;6.798;2022-12-18T08:51:16;102040.59;;;-4.95;94.26
2178;BME280;1095;50.992;6.798;2022-12-18T08:53:44;102044.78;;;-4.89;94.15
2178;BME280;1095;50.992;6.798;2022-12-18T08:56:11;102039.59;;;-4.83;93.89
2178;BME280;1095;50.992;6.798;2022-12-18T08:58:37;102022.69;;;-4.90;93.44
2178;BME280;1095;50.992;6.798;2022-12-18T09:01:06;102040.22;;;-4.72;93.75
2178;BME280;1095;50.992;6.798;2022-12-18T09:03:35;102041.75;;;-4.60;93.74
2178;BME280;1095;50.992;6.798;2022-12-18T09:06:02;102041.69;;;-4.56;93.27
2178;BME280;1095;50.992;6.798;2022-12-18T09:08:30;102033.16;;;-4.55;93.27
2178;BME280;1095;50.992;6.798;2022-12-18T09:11:04;102027.16;;;-4.54;92.55
2178;BME280;1095;50.992;6.798;2022-12-18T09:13:31;102034.75;;;-4.49;92.42
2178;BME280;1095;50.992;6.798;2022-12-18T09:15:58;102038.22;;;-4.52;92.49
2178;BME280;1095;50.992;6.798;2022-12-18T09:18:24;102051.72;;;-4.45;92.14
2178;BME280;1095;50.992;6.798;2022-12-18T09:20:53;102033.97;;;-4.53;92.18
2178;BME280;1095;50.992;6.798;2022-12-18T09:23:22;102032.06;;;-4.42;91.76
2178;BME280;1095;50.992;6.798;2022-12-18T09:25:48;102033.72;;;-4.38;92.01
2178;BME280;1095;50.992;6.798;2022-12-18T09:28:19;102018.44;;;-4.41;92.05
2178;BME280;1095;50.992;6.798;2022-12-18T09:30:48;102025.03;;;-4.29;91.96
2178;BME280;1095;50.992;6.798;2022-12-18T09:33:16;101995.34;;;-4.36;91.67
2178;BME280;1095;50.992;6.798;2022-12-18T09:35:44;102016.41;;;-4.23;91.33
2178;BME280;1095;50.992;6.798;2022-12-18T09:38:15;102001.78;;;-4.17;91.49
2178;BME280;1095;50.992;6.798;2022-12-18T09:40:43;101999.16;;;-4.12;90.88
2178;BME280;1095;50.992;6.798;2022-12-18T09:43:16;101996.44;;;-4.03;90.93
2178;BME280;1095;50.992;6.798;2022-12-18T09:45:44;101994.59;;;-3.96;90.66
2178;BME280;1095;50.992;6.798;2022-12-18T09:48:17;101984.97;;;-3.84;90.89
2178;BME280;1095;50.992;6.798;2022-12-18T09:50:47;101990.03;;;-3.81;89.97
2178;BME280;1095;50.992;6.798;2022-12-18T09:53:19;101988.16;;;-3.74;90.17
2178;BME280;1095;50.992;6.798;2022-12-18T09:55:52;101965.38;;;-3.85;89.26
2178;BME280;1095;50.992;6.798;2022-12-18T09:58:32;101994.69;;;-3.61;89.00
2178;BME280;1095;50.992;6.798;2022-12-18T10:01:09;101990.28;;;-3.54;89.17
2178;BME280;1095;50.992;6.798;2022-12-18T10:03:59;101963.00;;;-3.54;89.38
2178;BME280;1095;50.992;6.798;2022-12-18T10:06:53;101963.00;;;-3.54;89.12
2178;BME280;1095;50.992;6.798;2022-12-18T10:09:37;101961.03;;;-3.43;88.58
2178;BME280;1095;50.992;6.798;2022-12-18T10:12:18;101969.31;;;-3.31;87.80
2178;BME280;1095;50.992;6.798;2022-12-18T10:15:03;101961.72;;;-3.35;88.09
2178;BME280;1095;50.992;6.798;2022-12-18T10:18:02;101959.94;;;-3.31;87.56
2178;BME280;1095;50.992;6.798;2022-12-18T10:20:40;101951.28;;;-3.27;87.40
2178;BME280;1095;50.992;6.798;2022-12-18T10:23:32;101963.72;;;-3.12;87.31
2178;BME280;1095;50.992;6.798;2022-12-18T10:26:20;101932.50;;;-3.27;87.38
2178;BME280;1095;50.992;6.798;2022-12-18T10:28:49;101963.50;;;-3.03;87.32
2178;BME280;1095;50.992;6.798;2022-12-18T10:37:33;101964.91;;;-2.89;86.41
2178;BME280;1095;50.992;6.798;2022-12-18T10:40:15;101952.09;;;-2.89;86.28
2178;BME280;1095;50.992;6.798;2022-12-18T10:42:44;101914.00;;;-3.03;86.47
2178;BME280;1095;50.992;6.798;2022-12-18T10:45:17;101938.34;;;-2.85;85.85
2178;BME280;1095;50.992;6.798;2022-12-18T10:47:50;101924.88;;;-2.93;85.58
2178;BME280;1095;50.992;6.798;2022-12-18T10:50:35;101933.75;;;-2.74;85.97
2178;BME280;1095;50.992;6.798;2022-12-18T10:53:05;101930.22;;;-2.70;85.55
2178;BME280;1095;50.992;6.798;2022-12-18T10:55:34;101924.38;;;-2.75;85.73
2178;BME280;1095;50.992;6.798;2022-12-18T10:58:18;101919.97;;;-2.70;85.24
2178;BME280;1095;50.992;6.798;2022-12-18T11:01:02;101928.28;;;-2.60;84.87
2178;BME280;1095;50.992;6.798;2022-12-18T11:03:31;101913.81;;;-2.63;85.80
2178;BME280;1095;50.992;6.798;2022-12-18T11:06:09;101906.00;;;-2.58;85.22
2178;BME280;1095;50.992;6.798;2022-12-18T11:08:37;101908.53;;;-2.57;85.11
2178;BME280;1095;50.992;6.798;2022-12-18T11:11:09;101912.75;;;-2.54;85.12
2178;BME280;1095;50.992;6.798;2022-12-18T11:13:54;101914.13;;;-2.43;84.56
2178;BME280;1095;50.992;6.798;2022-12-18T11:16:24;101918.38;;;-2.42;84.22
2178;BME280;1095;50.992;6.798;2022-12-18T11:18:51;101908.00;;;-2.37;84.51
2178;BME280;1095;50.992;6.798;2022-12-18T11:21:18;101908.03;;;-2.39;84.02
2178;BME280;1095;50.992;6.798;2022-12-18T11:23:48;101905.44;;;-2.37;84.75
2178;BME280;1095;50.992;6.798;2022-12-18T11:26:16;101919.97;;;-2.38;84.51
2178;BME280;1095;50.992;6.798;2022-12-18T11:28:47;101895.84;;;-2.30;84.74
2178;BME280;1095;50.992;6.798;2022-12-18T11:31:20;101891.81;;;-2.39;84.80
2178;BME280;1095;50.992;6.798;2022-12-18T11:33:51;101887.34;;;-2.33;83.77
2178;BME280;1095;50.992;6.798;2022-12-18T11:36:18;101876.91;;;-2.26;84.48
2178;BME280;1095;50.992;6.798;2022-12-18T11:38:47;101870.19;;;-2.30;84.06
2178;BME280;1095;50.992;6.798;2022-12-18T11:41:21;101886.31;;;-2.27;83.91
2178;BME280;1095;50.992;6.798;2022-12-18T11:44:15;101868.50;;;-2.31;84.08
2178;BME280;1095;50.992;6.798;2022-12-18T11:46:47;101870.78;;;-2.21;84.33
2178;BME280;1095;50.992;6.798;2022-12-18T11:49:21;101858.16;;;-2.28;84.22
2178;BME280;1095;50.992;6.798;2022-12-18T11:51:53;101878.41;;;-2.19;83.37
2178;BME280;1095;50.992;6.798;2022-12-18T11:54:22;101860.53;;;-2.21;83.42
2178;BME280;1095;50.992;6.798;2022-12-18T11:56:51;101844.38;;;-2.24;84.10
2178;BME280;1095;50.992;6.798;2022-12-18T11:59:29;101855.31;;;-2.18;84.33
2178;BME280;1095;50.992;6.798;2022-12-18T12:02:09;101856.22;;;-2.20;84.61
2178;BME280;1095;50.992;6.798;2022-12-18T12:05:04;101855.38;;;-2.21;83.68
2178;BME280;1095;50.992;6.798;2022-12-18T12:07:42;101844.16;;;-2.17;84.10
2178;BME280;1095;50.992;6.798;2022-12-18T12:10:22;101852.91;;;-2.24;84.61
2178;BME280;1095;50.992;6.798;2022-12-18T12:13:02;101856.75;;;-2.09;84.16
2178;BME280;1095;50.992;6.798;2022-12-18T12:15:43;101853.34;;;-2.10;83.60
2178;BME280;1095;50.992;6.798;2022-12-18T12:18:24;101832.13;;;-2.15;84.08
2178;BME280;1095;50.992;6.798;2022-12-18T12:21:01;101832.00;;;-2.10;84.36
2178;BME280;1095;50.992;6.798;2022-12-18T12:23:37;101821.13;;;-2.18;83.37
2178;BME280;1095;50.992;6.798;2022-12-18T12:26:10;101826.91;;;-2.12;83.42
2178;BME280;1095;50.992;6.798;2022-12-18T12:28:59;101852.34;;;-2.04;83.14
2178;BME280;1095;50.992;6.798;2022-12-18T12:31:37;101845.72;;;-2.11;83.94
2178;BME280;1095;50.992;6.798;2022-12-18T12:34:15;101860.88;;;-2.04;84.11
2178;BME280;1095;50.992;6.798;2022-12-18T12:36:54;101843.00;;;-2.07;83.74
2178;BME280;1095;50.992;6.798;2022-12-18T12:39:29;101843.06;;;-2.08;83.61
2178;BME280;1095;50.992;6.798;2022-12-18T12:41:57;101822.63;;;-2.11;84.60
2178;BME280;1095;50.992;6.798;2022-12-18T12:44:43;101832.19;;;-2.16;83.45
2178;BME280;1095;50.992;6.798;2022-12-18T12:47:15;101848.78;;;-2.00;83.97
2178;BME280;1095;50.992;6.798;2022-12-18T12:49:43;101839.56;;;-2.06;84.08
2178;BME280;1095;50.992;6.798;2022-12-18T12:52:15;101842.06;;;-2.04;83.76
2178;BME280;1095;50.992;6.798;2022-12-18T12:54:44;101836.94;;;-2.04;83.45
2178;BME280;1095;50.992;6.798;2022-12-18T12:57:15;101840.56;;;-2.11;84.19
2178;BME280;1095;50.992;6.798;2022-12-18T12:59:48;101845.63;;;-2.08;83.31
2178;BME280;1095;50.992;6.798;2022-12-18T13:02:22;101840.50;;;-2.08;83.67
2178;BME280;1095;50.992;6.798;2022-12-18T13:04:58;101842.25;;;-2.10;83.80
2178;BME280;1095;50.992;6.798;2022-12-18T13:07:33;101832.97;;;-2.14;83.30
2178;BME280;1095;50.992;6.798;2022-12-18T13:10:25;101829.47;;;-2.12;84.22
2178;BME280;1095;50.992;6.798;2022-12-18T13:12:56;101822.53;;;-2.08;83.76
2178;BME280;1095;50.992;6.798;2022-12-18T13:15:24;101825.19;;;-2.11;83.95
2178;BME280;1095;50.992;6.798;2022-12-18T13:18:13;101806.25;;;-2.07;83.36
2178;BME280;1095;50.992;6.798;2022-12-18T13:20:43;101808.91;;;-2.10;83.58
2178;BME280;1095;50.992;6.798;2022-12-18T13:23:26;101800.38;;;-2.11;83.96
2178;BME280;1095;50.992;6.798;2022-12-18T13:25:54;101801.22;;;-2.10;84.03
2178;BME280;1095;50.992;6.798;2022-12-18T13:28:22;101796.97;;;-2.11;83.91
2178;BME280;1095;50.992;6.798;2022-12-18T13:30:55;101795.31;;;-2.12;83.61
2178;BME280;1095;50.992;6.798;2022-12-18T13:33:50;101796.09;;;-2.10;84.35